Radiosonde details



Informationen :

Serial : Y2053278
Type : Vaisala RS41-SG
Date of production : 15.05.2026
Frequency : 404.000MHz
Launchsite : White Lake, Mi.
Nearest town : Shelby, US (1.4km)

Altitude (Max) : 9891m at 2026-09-02 11:39:41
Speed (Max) : 87km/h at altitude 8903m

Average speed : 69km/h
Average ascent rate : 5m/s
Average descent rate : 0m/s
Ascent rate (Max) : 6.8m/s
Descent rate (Max): 3.4m/s

First frame :
DJALKS at 2026-09-02 11:16:54 at altitude 3368m (OG: 3326m)
Last frame :
DJALKS at 2026-09-02 11:39:41 at altitude 9891m (OG: 9849m)

Flighttime : 22m47s
Ascent time : 22m47s
Descent time : 0s
Uptime : -
Killtimer : -

Distance (Straight line distance): 26km

Distance (Route):


Frames : 35


Measurement :

Temperature : -35.1°C
Humidity : 17.4%
Pressure : 0hPa


Vertical profile (SkewT) :


Elevation profile :



Receiving stations :


Receiver Frames First received Last received
DJALKS 35 2026-09-02 11:16:54 2026-09-02 11:39:41

Share per receiver :



All frames :


Receiver Date Latitude Longitude Direction Speed Altitude Climb Temperature Humidity Pressure Voltage Killtimer Uptime BKT XDATA
DJALKS2026-09-02 11:39:4142.68316-83.0333492°84km/h9891m5.4m/s-35.1°C17.4%0hPa0V00:00:0000:00:0000:00:00
DJALKS2026-09-02 11:39:1342.68333-83.0413693°82km/h9749m4.8m/s-33.8°C16.2%0hPa0V00:00:0000:00:0000:00:00
DJALKS2026-09-02 11:36:2442.68359-83.0893394°86km/h8903m5.8m/s-27.3°C7.4%0hPa0V00:00:0000:00:0000:00:00
DJALKS2026-09-02 11:35:4542.68378-83.1000788°77km/h8722m4.2m/s-26.4°C9.8%0hPa0V00:00:0000:00:0000:00:00
DJALKS2026-09-02 11:31:4342.68357-83.1557189°77km/h7711m3.4m/s-19.8°C17.8%0hPa0V00:00:0000:00:0000:00:00
DJALKS2026-09-02 11:31:2142.68357-83.1610492°78km/h7636m3.7m/s-19.9°C28.4%0hPa0V00:00:0000:00:0000:00:00
DJALKS2026-09-02 11:31:0042.68369-83.1667395°77km/h7552m3.5m/s-19.3°C27.7%0hPa0V00:00:0000:00:0000:00:00
DJALKS2026-09-02 11:30:3842.68384-83.1724991°78km/h7449m5.7m/s-18.4°C25.6%0hPa0V00:00:0000:00:0000:00:00
DJALKS2026-09-02 11:30:1742.68401-83.1785795°75km/h7340m3.6m/s-17.4°C24.2%0hPa0V00:00:0000:00:0000:00:00
DJALKS2026-09-02 11:29:0942.68524-83.1967297°78km/h6983m6.2m/s-14.4°C13.5%0hPa0V00:00:0000:00:0000:00:00
DJALKS2026-09-02 11:28:3742.68610-83.2046196°68km/h6831m5.2m/s-13.4°C14.0%0hPa0V00:00:0000:00:0000:00:00
DJALKS2026-09-02 11:28:1542.68659-83.2100097°71km/h6728m5.4m/s-12.7°C18.5%0hPa0V00:00:0000:00:0000:00:00
DJALKS2026-09-02 11:27:5642.68714-83.2147197°68km/h6625m4.2m/s-11.8°C16.2%0hPa0V00:00:0000:00:0000:00:00
DJALKS2026-09-02 11:27:2442.68809-83.2219898°71km/h6460m5.4m/s-10.8°C19.4%0hPa0V00:00:0000:00:0000:00:00
DJALKS2026-09-02 11:27:0442.68881-83.22655104°66km/h6359m5.0m/s-10.6°C19.4%0hPa0V00:00:0000:00:0000:00:00
DJALKS2026-09-02 11:26:4442.68951-83.23078109°62km/h6252m6.5m/s-10.0°C19.8%0hPa0V00:00:0000:00:0000:00:00
DJALKS2026-09-02 11:26:2342.69058-83.23530104°55km/h6153m3.5m/s-9.1°C16.7%0hPa0V00:00:0000:00:0000:00:00
DJALKS2026-09-02 11:26:0242.69149-83.23956106°60km/h6031m5.6m/s-8.3°C15.6%0hPa0V00:00:0000:00:0000:00:00
DJALKS2026-09-02 11:25:4242.69208-83.2441096°66km/h5933m4.6m/s-7.7°C10.1%0hPa0V00:00:0000:00:0000:00:00
DJALKS2026-09-02 11:25:2042.69258-83.2488998°73km/h5820m5.2m/s-7.3°C11.9%0hPa0V00:00:0000:00:0000:00:00
DJALKS2026-09-02 11:24:5942.69332-83.25383103°64km/h5711m5.3m/s-6.9°C16.1%0hPa0V00:00:0000:00:0000:00:00
DJALKS2026-09-02 11:24:3842.69417-83.25797106°60km/h5617m4.0m/s-6.4°C27.0%0hPa0V00:00:0000:00:0000:00:00
DJALKS2026-09-02 11:23:5742.69570-83.26634104°62km/h5426m3.9m/s-4.7°C21.8%0hPa0V00:00:0000:00:0000:00:00
DJALKS2026-09-02 11:23:1242.69753-83.27565114°64km/h5214m4.5m/s-2.8°C25.4%0hPa0V00:00:0000:00:0000:00:00
DJALKS2026-09-02 11:21:2342.70216-83.29759111°57km/h4690m4.1m/s0.0°C71.9%0hPa0V00:00:0000:00:0000:00:00
DJALKS2026-09-02 11:21:0342.70321-83.30162113°62km/h4584m4.9m/s1.1°C62.4%0hPa0V00:00:0000:00:0000:00:00
DJALKS2026-09-02 11:20:4242.70407-83.30556111°47km/h4479m6.8m/s2.1°C51.2%0hPa0V00:00:0000:00:0000:00:00
DJALKS2026-09-02 11:20:2142.70486-83.3098893°69km/h4369m6.0m/s3.0°C40.4%0hPa0V00:00:0000:00:0000:00:00
DJALKS2026-09-02 11:20:0142.70490-83.31423101°71km/h4260m6.5m/s3.7°C0%0hPa0V00:00:0000:00:0000:00:00
DJALKS2026-09-02 11:18:5542.70379-83.3286389°62km/h3923m4.5m/s0°C0%0hPa0V00:00:0000:00:0000:00:00
DJALKS2026-09-02 11:18:3242.70364-83.3335886°75km/h3826m6.8m/s0°C0%0hPa0V00:00:0000:00:0000:00:00
DJALKS2026-09-02 11:18:1042.70300-83.3380670°69km/h3717m4.6m/s0°C0%0hPa0V00:00:0000:00:0000:00:00
DJALKS2026-09-02 11:17:3742.70140-83.3451175°77km/h3567m4.2m/s0°C0%0hPa0V00:00:0000:00:0000:00:00
DJALKS2026-09-02 11:17:1742.70041-83.3485869°58km/h3471m5.1m/s0°C0%0hPa0V00:00:0000:00:0000:00:00
DJALKS2026-09-02 11:16:5442.69921-83.3525563°60km/h3368m4.8m/s0°C0%0hPa0V00:00:0000:00:0000:00:00


GPX KML Map

© wettersonde.net (DO2JMG) - 2026  -  -